createdAt,value
2022-12-31T00:00:11.378Z,995.4
2022-12-31T00:01:27.672Z,995.4
2022-12-31T00:02:43.963Z,995.4
2022-12-31T00:03:59.272Z,995.5
2022-12-31T00:05:15.569Z,995.5
2022-12-31T00:06:31.867Z,995.5
2022-12-31T00:07:48.165Z,995.5
2022-12-31T00:09:04.450Z,995.5
2022-12-31T00:10:20.750Z,995.4
2022-12-31T00:11:37.047Z,995.4
2022-12-31T00:12:53.329Z,995.4
2022-12-31T00:14:09.629Z,995.4
2022-12-31T00:15:25.928Z,995.4
2022-12-31T00:16:42.225Z,995.4
2022-12-31T00:17:58.508Z,995.4
2022-12-31T00:19:14.815Z,995.4
2022-12-31T00:20:30.126Z,995.5
2022-12-31T00:21:46.402Z,995.5
2022-12-31T00:23:02.696Z,995.5
2022-12-31T00:24:18.991Z,995.7
2022-12-31T00:25:35.299Z,995.5
2022-12-31T00:26:51.590Z,995.6
2022-12-31T00:28:07.892Z,995.5
2022-12-31T00:29:24.165Z,995.6
2022-12-31T00:30:40.470Z,995.6
2022-12-31T00:31:56.755Z,995.6
2022-12-31T00:33:13.060Z,995.6
2022-12-31T00:34:29.340Z,995.6
2022-12-31T00:35:45.638Z,995.7
2022-12-31T00:37:00.946Z,995.7
2022-12-31T00:38:17.245Z,995.7
2022-12-31T00:39:33.540Z,995.6
2022-12-31T00:40:49.832Z,995.7
2022-12-31T00:42:06.124Z,995.8
2022-12-31T00:43:22.427Z,995.7
2022-12-31T00:44:38.710Z,995.8
2022-12-31T00:45:55.008Z,995.7
2022-12-31T00:47:11.315Z,995.8
2022-12-31T00:48:27.602Z,995.8
2022-12-31T00:49:43.901Z,995.8
2022-12-31T00:51:00.179Z,995.8
2022-12-31T00:52:16.489Z,995.8
2022-12-31T00:53:31.794Z,995.7
2022-12-31T00:54:48.081Z,995.8
2022-12-31T00:56:04.391Z,995.7
2022-12-31T00:57:20.666Z,995.7
2022-12-31T00:58:36.972Z,995.7
2022-12-31T00:59:53.264Z,995.8
2022-12-31T01:01:09.552Z,995.8
2022-12-31T01:02:25.848Z,995.8
2022-12-31T01:03:42.148Z,995.9
2022-12-31T01:04:58.432Z,996
2022-12-31T01:06:14.731Z,995.9
2022-12-31T01:07:31.032Z,995.9
2022-12-31T01:08:47.317Z,995.9
2022-12-31T01:10:02.620Z,995.9
2022-12-31T01:11:18.926Z,995.9
2022-12-31T01:12:35.207Z,995.9
2022-12-31T01:13:51.501Z,995.9
2022-12-31T01:15:07.813Z,996
2022-12-31T01:16:24.107Z,996.1
2022-12-31T01:17:40.387Z,996.2
2022-12-31T01:18:56.687Z,996.1
2022-12-31T01:20:12.989Z,996.2
2022-12-31T01:21:29.277Z,996.3
2022-12-31T01:22:45.559Z,996.4
2022-12-31T01:24:01.870Z,996.4
2022-12-31T01:25:18.152Z,996.4
2022-12-31T01:26:33.456Z,996.5
2022-12-31T01:27:49.760Z,996.5
2022-12-31T01:29:06.061Z,996.5
2022-12-31T01:30:22.342Z,996.5
2022-12-31T01:31:38.644Z,996.4
2022-12-31T01:32:54.926Z,996.4
2022-12-31T01:34:11.235Z,996.5
2022-12-31T01:35:27.530Z,996.4
2022-12-31T01:36:43.829Z,996.5
2022-12-31T01:38:00.109Z,996.5
2022-12-31T01:39:16.407Z,996.5
2022-12-31T01:40:32.694Z,996.6
2022-12-31T01:41:48.991Z,996.7
2022-12-31T01:43:04.306Z,996.6
2022-12-31T01:44:20.602Z,996.7
2022-12-31T01:45:36.883Z,996.6
2022-12-31T01:46:53.183Z,996.6
2022-12-31T01:48:09.482Z,996.6
2022-12-31T01:49:25.770Z,996.6
2022-12-31T01:50:42.060Z,996.6
2022-12-31T01:51:58.358Z,996.6
2022-12-31T01:53:14.647Z,996.7
2022-12-31T01:54:30.949Z,996.7
2022-12-31T01:55:47.241Z,996.6
2022-12-31T01:57:03.533Z,996.5
2022-12-31T01:58:19.823Z,996.5
2022-12-31T01:59:35.135Z,996.5
2022-12-31T02:00:51.425Z,996.5
2022-12-31T02:02:07.734Z,996.5
2022-12-31T02:03:24.024Z,996.5
2022-12-31T02:04:40.321Z,996.4
2022-12-31T02:05:56.602Z,996.3
2022-12-31T02:07:12.909Z,996.3
2022-12-31T02:08:29.192Z,996.2
2022-12-31T02:09:45.494Z,996.2
2022-12-31T02:11:01.778Z,996.2
2022-12-31T02:12:18.081Z,996.2
2022-12-31T02:13:34.378Z,996.3
2022-12-31T02:14:50.666Z,996.2
2022-12-31T02:16:05.979Z,996.4
2022-12-31T02:17:22.259Z,996.4
2022-12-31T02:18:38.570Z,996.4
2022-12-31T02:19:54.863Z,996.6
2022-12-31T02:21:11.159Z,996.6
2022-12-31T02:22:27.446Z,996.6
2022-12-31T02:23:42.776Z,996.7
2022-12-31T02:24:59.057Z,996.5
2022-12-31T02:26:15.352Z,996.4
2022-12-31T02:27:31.635Z,996.5
2022-12-31T02:28:47.935Z,996.4
2022-12-31T02:30:04.219Z,996.4
2022-12-31T02:31:20.525Z,996.3
2022-12-31T02:32:36.808Z,996.3
2022-12-31T02:33:53.113Z,996.4
2022-12-31T02:35:09.406Z,996.3
2022-12-31T02:37:41.998Z,996.5
2022-12-31T02:38:58.283Z,996.4
2022-12-31T02:40:13.591Z,996.4
2022-12-31T02:41:29.903Z,996.4
2022-12-31T02:42:46.188Z,996.4
2022-12-31T02:44:02.467Z,996.4
2022-12-31T02:45:18.763Z,996.4
2022-12-31T02:46:35.055Z,996.3
2022-12-31T02:47:51.372Z,996.4
2022-12-31T02:49:07.645Z,996.4
2022-12-31T02:50:23.958Z,996.4
2022-12-31T02:51:40.236Z,996.4
2022-12-31T02:52:56.532Z,996.5
2022-12-31T02:54:12.821Z,996.5
2022-12-31T02:55:29.114Z,996.5
2022-12-31T02:56:44.433Z,996.4
2022-12-31T02:58:00.735Z,996.4
2022-12-31T02:59:17.028Z,996.4
2022-12-31T03:00:33.313Z,996.3
2022-12-31T03:01:49.614Z,996.3
2022-12-31T03:03:05.909Z,996.3
2022-12-31T03:04:22.199Z,996.3
2022-12-31T03:05:38.495Z,996.2
2022-12-31T03:06:54.775Z,996.2
2022-12-31T03:08:11.076Z,996.3
2022-12-31T03:09:27.369Z,996.2
2022-12-31T03:10:43.676Z,996.2
2022-12-31T03:11:59.963Z,996.3
2022-12-31T03:13:15.268Z,996.2
2022-12-31T03:14:31.567Z,996.3
2022-12-31T03:15:47.862Z,996.3
2022-12-31T03:17:04.156Z,996.3
2022-12-31T03:18:20.448Z,996.2
2022-12-31T03:19:36.729Z,996.2
2022-12-31T03:20:53.023Z,996.2
2022-12-31T03:22:09.326Z,996.3
2022-12-31T03:23:25.611Z,996.2
2022-12-31T03:24:41.912Z,996.2
2022-12-31T03:25:58.216Z,996.2
2022-12-31T03:27:14.493Z,996.3
2022-12-31T03:28:30.792Z,996.3
2022-12-31T03:29:46.101Z,996.3
2022-12-31T03:31:02.392Z,996.2
2022-12-31T03:32:18.692Z,996.3
2022-12-31T03:33:34.990Z,996.2
2022-12-31T03:34:51.283Z,996.2
2022-12-31T03:36:07.575Z,996.2
2022-12-31T03:37:23.000Z,996.2
2022-12-31T03:38:40.175Z,996.2
2022-12-31T03:39:56.452Z,996.2
2022-12-31T03:41:12.757Z,996.2
2022-12-31T03:42:29.047Z,996.1
2022-12-31T03:43:45.338Z,996.1
2022-12-31T03:45:01.627Z,996.1
2022-12-31T03:46:16.944Z,996.1
2022-12-31T03:47:33.246Z,996.1
2022-12-31T03:48:49.531Z,996.1
2022-12-31T03:50:05.822Z,996.1
2022-12-31T03:51:22.131Z,996
2022-12-31T03:52:38.403Z,996
2022-12-31T03:53:54.705Z,996
2022-12-31T03:55:11.006Z,996
2022-12-31T03:56:27.291Z,995.9
2022-12-31T03:57:43.581Z,996
2022-12-31T03:58:59.882Z,995.9
2022-12-31T04:00:16.183Z,995.8
2022-12-31T04:01:32.471Z,995.8
2022-12-31T04:02:47.778Z,995.9
2022-12-31T04:04:04.083Z,995.8
2022-12-31T04:05:20.361Z,995.8
2022-12-31T04:06:36.659Z,995.8
2022-12-31T04:07:52.961Z,995.8
2022-12-31T04:09:09.247Z,995.8
2022-12-31T04:10:25.547Z,995.8
2022-12-31T04:11:41.840Z,995.9
2022-12-31T04:12:58.129Z,995.8
2022-12-31T04:14:14.424Z,995.8
2022-12-31T04:15:30.714Z,995.7
2022-12-31T04:16:47.004Z,995.7
2022-12-31T04:18:03.295Z,995.7
2022-12-31T04:19:18.616Z,995.8
2022-12-31T04:20:34.908Z,995.7
2022-12-31T04:21:51.211Z,995.8
2022-12-31T04:23:07.488Z,995.7
2022-12-31T04:24:23.791Z,995.6
2022-12-31T04:25:40.099Z,995.6
2022-12-31T04:26:56.380Z,995.5
2022-12-31T04:28:12.679Z,995.5
2022-12-31T04:29:28.973Z,995.5
2022-12-31T04:30:45.250Z,995.5
2022-12-31T04:32:01.000Z,995.7
2022-12-31T04:33:17.844Z,995.7
2022-12-31T04:34:34.148Z,995.7
2022-12-31T04:35:49.455Z,995.9
2022-12-31T04:37:05.737Z,995.8
2022-12-31T04:38:22.052Z,995.8
2022-12-31T04:39:38.332Z,995.8
2022-12-31T04:40:54.628Z,995.8
2022-12-31T04:42:10.910Z,995.7
2022-12-31T04:43:27.215Z,995.8
2022-12-31T04:44:43.504Z,995.8
2022-12-31T04:45:59.801Z,995.8
2022-12-31T04:47:16.090Z,995.8
2022-12-31T04:48:32.394Z,995.8
2022-12-31T04:49:48.695Z,995.8
2022-12-31T04:51:04.986Z,995.8
2022-12-31T04:52:20.294Z,995.9
2022-12-31T04:53:36.582Z,995.9
2022-12-31T04:54:52.869Z,995.9
2022-12-31T04:56:09.163Z,995.9
2022-12-31T04:57:25.459Z,995.9
2022-12-31T04:58:41.749Z,995.9
2022-12-31T04:59:58.056Z,995.9
2022-12-31T05:01:14.351Z,995.9
2022-12-31T05:02:30.647Z,996
2022-12-31T05:03:46.932Z,995.8
2022-12-31T05:05:03.216Z,995.8
2022-12-31T05:06:19.513Z,995.9
2022-12-31T05:07:35.804Z,995.9
2022-12-31T05:08:51.121Z,995.9
2022-12-31T05:10:07.407Z,995.9
2022-12-31T05:11:23.699Z,995.9
2022-12-31T05:12:40.004Z,995.9
2022-12-31T05:13:56.296Z,996
2022-12-31T05:15:12.605Z,996
2022-12-31T05:16:28.895Z,996
2022-12-31T05:17:45.176Z,996
2022-12-31T05:19:01.465Z,995.9
2022-12-31T05:20:17.770Z,995.9
2022-12-31T05:21:34.064Z,996
2022-12-31T05:22:50.358Z,995.9
2022-12-31T05:24:06.650Z,996.1
2022-12-31T05:25:21.963Z,995.9
2022-12-31T05:26:38.255Z,995.9
2022-12-31T05:27:54.537Z,995.9
2022-12-31T05:29:10.848Z,995.9
2022-12-31T05:30:27.124Z,995.9
2022-12-31T05:31:43.430Z,995.9
2022-12-31T05:32:59.724Z,995.9
2022-12-31T05:34:16.020Z,995.9
2022-12-31T05:35:32.308Z,995.8
2022-12-31T05:36:48.605Z,995.9
2022-12-31T05:38:04.893Z,995.8
2022-12-31T05:39:21.188Z,995.8
2022-12-31T05:40:37.479Z,995.8
2022-12-31T05:41:52.794Z,995.8
2022-12-31T05:43:09.090Z,995.8
2022-12-31T05:44:25.375Z,995.8
2022-12-31T05:45:41.677Z,995.9
2022-12-31T05:46:57.975Z,995.8
2022-12-31T05:48:14.256Z,995.8
2022-12-31T05:49:30.550Z,995.9
2022-12-31T05:50:46.842Z,995.9
2022-12-31T05:52:03.150Z,995.9
2022-12-31T05:53:19.432Z,995.9
2022-12-31T05:54:35.735Z,995.9
2022-12-31T05:55:52.020Z,995.9
2022-12-31T05:57:08.314Z,995.9
2022-12-31T05:58:23.635Z,995.8
2022-12-31T05:59:39.926Z,995.8
2022-12-31T06:00:56.215Z,995.8
2022-12-31T06:02:12.502Z,995.8
2022-12-31T06:03:28.794Z,995.8
2022-12-31T06:04:45.100Z,995.7
2022-12-31T06:06:01.400Z,995.7
2022-12-31T06:07:17.673Z,995.7
2022-12-31T06:08:33.980Z,995.7
2022-12-31T06:09:50.274Z,995.7
2022-12-31T06:11:06.563Z,995.7
2022-12-31T06:12:22.861Z,995.6
2022-12-31T06:13:39.161Z,995.6
2022-12-31T06:14:54.474Z,995.6
2022-12-31T06:16:10.762Z,995.6
2022-12-31T06:17:27.045Z,995.6
2022-12-31T06:18:43.331Z,995.7
2022-12-31T06:19:59.636Z,995.5
2022-12-31T06:21:15.925Z,995.5
2022-12-31T06:22:32.223Z,995.6
2022-12-31T06:23:48.516Z,995.6
2022-12-31T06:25:04.820Z,995.6
2022-12-31T06:26:21.105Z,995.6
2022-12-31T06:27:37.396Z,995.6
2022-12-31T06:28:53.681Z,995.6
2022-12-31T06:30:09.978Z,995.7
2022-12-31T06:31:25.300Z,995.7
2022-12-31T06:32:41.598Z,995.6
2022-12-31T06:33:57.875Z,995.7
2022-12-31T06:35:14.171Z,995.7
2022-12-31T06:36:30.474Z,995.5
2022-12-31T06:37:46.776Z,995.5
2022-12-31T06:39:02.085Z,995.6
2022-12-31T06:40:18.374Z,995.5
2022-12-31T06:41:34.669Z,995.8
2022-12-31T06:42:50.960Z,995.7
2022-12-31T06:44:07.252Z,995.6
2022-12-31T06:45:23.499Z,995.5
2022-12-31T06:46:39.743Z,995.6
2022-12-31T06:47:55.985Z,995.7
2022-12-31T06:49:12.224Z,995.6
2022-12-31T06:50:28.477Z,995.7
2022-12-31T06:51:44.717Z,995.6
2022-12-31T06:53:00.941Z,995.6
2022-12-31T06:54:17.183Z,995.8
2022-12-31T06:55:32.435Z,995.7
2022-12-31T06:56:48.677Z,995.6
2022-12-31T06:58:04.912Z,995.9
2022-12-31T06:59:21.150Z,995.7
2022-12-31T07:00:37.401Z,995.8
2022-12-31T07:01:53.633Z,995.8
2022-12-31T07:03:09.879Z,995.8
2022-12-31T07:04:26.130Z,995.9
2022-12-31T07:05:42.371Z,995.8
2022-12-31T07:06:58.597Z,995.7
2022-12-31T07:08:14.839Z,995.8
2022-12-31T07:09:31.077Z,995.8
2022-12-31T07:10:47.314Z,995.8
2022-12-31T07:12:02.574Z,995.8
2022-12-31T07:13:18.803Z,995.8
2022-12-31T07:14:35.056Z,995.9
2022-12-31T07:15:51.305Z,995.9
2022-12-31T07:17:07.531Z,995.9
2022-12-31T07:18:23.766Z,995.9
2022-12-31T07:19:40.017Z,996
2022-12-31T07:20:56.247Z,995.9
2022-12-31T07:22:12.487Z,995.9
2022-12-31T07:23:28.726Z,995.9
2022-12-31T07:24:44.970Z,995.9
2022-12-31T07:26:01.207Z,995.9
2022-12-31T07:27:17.459Z,995.9
2022-12-31T07:28:32.702Z,996
2022-12-31T07:29:48.947Z,995.9
2022-12-31T07:31:05.190Z,995.9
2022-12-31T07:32:21.418Z,996
2022-12-31T07:33:37.663Z,996.1
2022-12-31T07:34:53.909Z,996
2022-12-31T07:36:10.149Z,996.1
2022-12-31T07:37:26.383Z,996.2
2022-12-31T07:38:42.622Z,996.2
2022-12-31T07:39:58.874Z,996.2
2022-12-31T07:41:15.098Z,996.2
2022-12-31T07:42:31.341Z,996.1
2022-12-31T07:43:47.597Z,996.2
2022-12-31T07:45:02.837Z,996.2
2022-12-31T07:46:19.081Z,996.2
2022-12-31T07:47:35.317Z,996.3
2022-12-31T07:48:51.559Z,996.3
2022-12-31T07:50:07.801Z,996.3
2022-12-31T07:51:24.033Z,996.3
2022-12-31T07:52:40.281Z,996.4
2022-12-31T07:53:56.525Z,996.3
2022-12-31T07:55:12.754Z,996.4
2022-12-31T07:56:29.006Z,996.4
2022-12-31T07:57:45.239Z,996.4
2022-12-31T07:59:01.475Z,996.4
2022-12-31T08:00:17.721Z,996.4
2022-12-31T08:01:32.983Z,996.4
2022-12-31T08:02:49.205Z,996.4
2022-12-31T08:04:05.445Z,996.4
2022-12-31T08:05:21.684Z,996.4
2022-12-31T08:06:37.930Z,996.4
2022-12-31T08:07:54.173Z,996.5
2022-12-31T08:09:10.411Z,996.5
2022-12-31T08:10:26.644Z,996.5
2022-12-31T08:11:42.884Z,996.5
2022-12-31T08:12:59.141Z,996.5
2022-12-31T08:14:15.364Z,996.5
2022-12-31T08:15:31.613Z,996.6
2022-12-31T08:16:47.857Z,996.5
2022-12-31T08:18:03.104Z,996.5
2022-12-31T08:19:19.340Z,996.5
2022-12-31T08:20:35.595Z,996.6
2022-12-31T08:21:51.831Z,996.6
2022-12-31T08:23:08.065Z,996.5
2022-12-31T08:24:24.311Z,996.5
2022-12-31T08:25:40.550Z,996.5
2022-12-31T08:26:56.789Z,996.5
2022-12-31T08:28:13.017Z,996.5
2022-12-31T08:29:29.262Z,996.4
2022-12-31T08:30:45.497Z,996.5
2022-12-31T08:32:01.741Z,996.5
2022-12-31T08:33:17.980Z,996.6
2022-12-31T08:34:33.234Z,996.6
2022-12-31T08:35:49.476Z,996.6
2022-12-31T08:37:05.720Z,996.6
2022-12-31T08:38:21.963Z,996.6
2022-12-31T08:39:38.210Z,996.6
2022-12-31T08:40:54.445Z,996.6
2022-12-31T08:42:10.680Z,996.6
2022-12-31T08:43:26.913Z,996.6
2022-12-31T08:44:43.154Z,996.6
2022-12-31T08:45:59.391Z,996.7
2022-12-31T08:47:15.627Z,996.7
2022-12-31T08:48:31.874Z,996.7
2022-12-31T08:49:48.112Z,996.7
2022-12-31T08:51:03.384Z,996.7
2022-12-31T08:52:19.605Z,996.7
2022-12-31T08:53:35.845Z,996.8
2022-12-31T08:54:52.091Z,996.7
2022-12-31T08:56:08.327Z,996.7
2022-12-31T08:57:24.575Z,996.7
2022-12-31T08:58:40.813Z,996.9
2022-12-31T08:59:57.059Z,996.8
2022-12-31T09:01:13.296Z,996.9
2022-12-31T09:02:29.542Z,996.9
2022-12-31T09:03:45.781Z,996.9
2022-12-31T09:05:02.009Z,996.8
2022-12-31T09:06:18.246Z,996.9
2022-12-31T09:07:33.513Z,996.9
2022-12-31T09:08:49.739Z,996.9
2022-12-31T09:10:05.980Z,996.9
2022-12-31T09:11:22.226Z,997
2022-12-31T09:12:38.473Z,996.9
2022-12-31T09:13:54.699Z,997
2022-12-31T09:15:10.935Z,996.9
2022-12-31T09:16:27.191Z,996.9
2022-12-31T09:17:43.434Z,996.9
2022-12-31T09:18:59.672Z,997
2022-12-31T09:20:15.905Z,997
2022-12-31T09:21:32.149Z,997
2022-12-31T09:22:48.390Z,997.1
2022-12-31T09:24:03.634Z,997.1
2022-12-31T09:25:19.886Z,997.1
2022-12-31T09:26:36.115Z,997
2022-12-31T09:27:52.356Z,997.1
2022-12-31T09:29:08.597Z,997.1
2022-12-31T09:30:24.836Z,997.1
2022-12-31T09:31:41.078Z,997.1
2022-12-31T09:32:57.313Z,997.1
2022-12-31T09:34:13.550Z,997.2
2022-12-31T09:35:29.802Z,997.2
2022-12-31T09:36:46.032Z,997.1
2022-12-31T09:38:02.269Z,997.1
2022-12-31T09:39:18.510Z,997.2
2022-12-31T09:40:33.775Z,997.2
2022-12-31T09:41:50.011Z,997.2
2022-12-31T09:43:06.253Z,997.2
2022-12-31T09:44:22.482Z,997.2
2022-12-31T09:45:38.729Z,997.2
2022-12-31T09:46:54.981Z,997.2
2022-12-31T09:48:11.202Z,997.3
2022-12-31T09:49:27.461Z,997.2
2022-12-31T09:50:43.700Z,997.3
2022-12-31T09:51:59.936Z,997.3
2022-12-31T09:54:32.401Z,997.2
2022-12-31T09:55:48.643Z,997
2022-12-31T09:57:03.911Z,997.1
2022-12-31T09:58:20.147Z,997.1
2022-12-31T09:59:36.388Z,997.2
2022-12-31T10:00:52.620Z,997.1
2022-12-31T10:02:08.856Z,997.1
2022-12-31T10:03:25.102Z,997.1
2022-12-31T10:04:41.336Z,997
2022-12-31T10:05:57.582Z,997.1
2022-12-31T10:07:13.831Z,996.9
2022-12-31T10:08:30.066Z,997.2
2022-12-31T10:09:46.304Z,997
2022-12-31T10:11:02.543Z,997
2022-12-31T10:12:18.795Z,997
2022-12-31T10:13:35.155Z,996.9
2022-12-31T10:14:51.380Z,996.9
2022-12-31T10:16:07.631Z,996.9
2022-12-31T10:17:23.866Z,997
2022-12-31T10:18:40.098Z,997.1
2022-12-31T10:19:56.354Z,997.1
2022-12-31T10:21:12.584Z,997
2022-12-31T10:22:28.827Z,997
2022-12-31T10:23:45.068Z,997.1
2022-12-31T10:25:01.304Z,997.3
2022-12-31T10:26:17.541Z,997
2022-12-31T10:27:33.784Z,997
2022-12-31T10:28:50.025Z,997.1
2022-12-31T10:30:06.255Z,997.1
2022-12-31T10:31:21.524Z,997
2022-12-31T10:32:37.760Z,997
2022-12-31T10:33:53.990Z,997
2022-12-31T10:35:10.232Z,996.9
2022-12-31T10:36:26.468Z,996.9
2022-12-31T10:37:42.722Z,996.8
2022-12-31T10:38:58.964Z,996.9
2022-12-31T10:40:15.202Z,996.8
2022-12-31T10:41:31.442Z,997.1
2022-12-31T10:42:47.683Z,997
2022-12-31T10:44:03.922Z,997.1
2022-12-31T10:45:20.170Z,996.9
2022-12-31T10:46:36.412Z,996.9
2022-12-31T10:47:51.656Z,996.9
2022-12-31T10:49:07.903Z,997
2022-12-31T10:50:24.150Z,997.1
2022-12-31T10:51:40.377Z,996.9
2022-12-31T10:52:56.621Z,997.1
2022-12-31T10:54:11.877Z,997
2022-12-31T10:55:28.114Z,997
2022-12-31T10:56:44.353Z,996.9
2022-12-31T10:58:00.594Z,996.9
2022-12-31T10:59:16.844Z,996.9
2022-12-31T11:00:33.075Z,996.8
2022-12-31T11:01:49.318Z,996.8
2022-12-31T11:03:05.551Z,996.7
2022-12-31T11:04:21.807Z,996.7
2022-12-31T11:05:38.043Z,996.9
2022-12-31T11:06:54.271Z,996.7
2022-12-31T11:08:10.510Z,996.6
2022-12-31T11:09:26.759Z,996.6
2022-12-31T11:10:43.008Z,996.7
2022-12-31T11:11:58.261Z,996.8
2022-12-31T11:13:14.496Z,996.8
2022-12-31T11:14:30.735Z,996.7
2022-12-31T11:15:46.970Z,996.7
2022-12-31T11:17:03.213Z,996.7
2022-12-31T11:18:19.455Z,996.7
2022-12-31T11:19:35.703Z,996.7
2022-12-31T11:20:51.933Z,996.6
2022-12-31T11:22:08.169Z,996.6
2022-12-31T11:23:24.419Z,996.6
2022-12-31T11:24:40.647Z,996.7
2022-12-31T11:25:56.885Z,996.6
2022-12-31T11:27:13.133Z,996.6
2022-12-31T11:28:28.382Z,996.7
2022-12-31T11:29:44.618Z,996.6
2022-12-31T11:31:00.864Z,996.7
2022-12-31T11:32:17.096Z,996.7
2022-12-31T11:33:33.345Z,996.7
2022-12-31T11:34:49.595Z,996.8
2022-12-31T11:36:05.831Z,996.8
2022-12-31T11:37:22.062Z,996.8
2022-12-31T11:38:38.302Z,996.8
2022-12-31T11:39:54.541Z,996.8
2022-12-31T11:41:10.777Z,996.7
2022-12-31T11:42:27.025Z,996.8
2022-12-31T11:43:43.254Z,996.7
2022-12-31T11:44:58.524Z,996.8
2022-12-31T11:46:14.753Z,996.8
2022-12-31T11:47:30.999Z,996.8
2022-12-31T11:48:47.239Z,996.8
2022-12-31T11:50:03.487Z,996.8
2022-12-31T11:51:19.719Z,996.7
2022-12-31T11:52:35.951Z,996.7
2022-12-31T11:53:52.195Z,996.7
2022-12-31T11:55:08.446Z,996.8
2022-12-31T11:56:24.000Z,996.7
2022-12-31T11:57:40.918Z,996.7
2022-12-31T11:58:57.157Z,996.8
2022-12-31T12:00:13.396Z,996.7
2022-12-31T12:01:28.654Z,996.7
2022-12-31T12:02:44.897Z,996.8
2022-12-31T12:04:01.142Z,996.8
2022-12-31T12:05:17.365Z,996.8
2022-12-31T12:06:33.606Z,996.7
2022-12-31T12:07:49.845Z,996.7
2022-12-31T12:09:06.089Z,996.8
2022-12-31T12:10:22.320Z,996.6
2022-12-31T12:11:38.572Z,996.8
2022-12-31T12:12:54.807Z,996.8
2022-12-31T12:14:11.049Z,996.8
2022-12-31T12:15:27.299Z,996.8
2022-12-31T12:16:43.524Z,996.7
2022-12-31T12:17:58.787Z,996.7
2022-12-31T12:19:15.021Z,996.8
2022-12-31T12:20:31.259Z,996.8
2022-12-31T12:21:47.499Z,996.7
2022-12-31T12:23:03.742Z,996.7
2022-12-31T12:24:19.989Z,996.7
2022-12-31T12:25:36.226Z,996.6
2022-12-31T12:26:52.466Z,996.8
2022-12-31T12:28:08.702Z,996.8
2022-12-31T12:29:24.944Z,996.7
2022-12-31T12:30:41.187Z,996.7
2022-12-31T12:31:57.425Z,996.7
2022-12-31T12:33:13.667Z,996.7
2022-12-31T12:34:28.918Z,996.7
2022-12-31T12:37:01.391Z,996.8
2022-12-31T12:38:17.637Z,996.9
2022-12-31T12:39:33.873Z,996.8
2022-12-31T12:40:50.115Z,996.8
2022-12-31T12:42:06.353Z,996.9
2022-12-31T12:43:22.605Z,996.9
2022-12-31T12:44:38.826Z,996.9
2022-12-31T12:47:11.310Z,996.9
2022-12-31T12:48:27.548Z,996.9
2022-12-31T12:49:43.788Z,997
2022-12-31T12:50:59.047Z,996.8
2022-12-31T12:52:15.288Z,996.8
2022-12-31T12:53:31.536Z,996.9
2022-12-31T12:54:47.774Z,996.9
2022-12-31T12:56:04.012Z,997
2022-12-31T12:57:20.250Z,996.9
2022-12-31T12:58:36.488Z,996.9
2022-12-31T12:59:52.726Z,997
2022-12-31T13:01:08.970Z,997.1
2022-12-31T13:02:25.206Z,997
2022-12-31T13:03:41.445Z,997
2022-12-31T13:04:57.691Z,997.1
2022-12-31T13:06:13.937Z,997.1
2022-12-31T13:07:29.179Z,997
2022-12-31T13:08:45.413Z,997.1
2022-12-31T13:10:01.669Z,997.2
2022-12-31T13:11:17.911Z,997
2022-12-31T13:12:34.140Z,997.1
2022-12-31T13:13:50.379Z,997.1
2022-12-31T13:15:06.620Z,997.1
2022-12-31T13:16:22.868Z,997.1
2022-12-31T13:17:39.092Z,997.3
2022-12-31T13:18:55.332Z,997.2
2022-12-31T13:20:11.579Z,997.2
2022-12-31T13:21:27.809Z,997.2
2022-12-31T13:22:44.051Z,997.3
2022-12-31T13:23:59.313Z,997.4
2022-12-31T13:25:15.564Z,997.5
2022-12-31T13:26:31.799Z,997.4
2022-12-31T13:27:48.026Z,997.5
2022-12-31T13:29:04.271Z,997.4
2022-12-31T13:30:20.505Z,997.3
2022-12-31T13:31:36.761Z,997.5
2022-12-31T13:32:52.998Z,997.5
2022-12-31T13:34:09.235Z,997.6
2022-12-31T13:35:25.474Z,997.6
2022-12-31T13:36:41.705Z,997.7
2022-12-31T13:37:57.951Z,997.7
2022-12-31T13:39:14.200Z,997.7
2022-12-31T13:40:29.440Z,997.8
2022-12-31T13:41:45.684Z,997.8
2022-12-31T13:43:01.933Z,997.9
2022-12-31T13:44:18.170Z,997.7
2022-12-31T13:45:34.416Z,997.7
2022-12-31T13:46:50.652Z,997.6
2022-12-31T13:48:06.881Z,997.6
2022-12-31T13:49:23.128Z,997.6
2022-12-31T13:50:39.366Z,997.7
2022-12-31T13:51:55.603Z,997.7
2022-12-31T13:53:11.842Z,997.7
2022-12-31T13:54:28.089Z,997.7
2022-12-31T13:55:44.316Z,997.6
2022-12-31T13:56:59.579Z,997.7
2022-12-31T13:58:15.810Z,997.7
2022-12-31T13:59:32.054Z,997.6
2022-12-31T14:00:48.289Z,997.7
2022-12-31T14:02:04.536Z,997.6
2022-12-31T14:03:20.775Z,997.7
2022-12-31T14:04:37.027Z,997.8
2022-12-31T14:05:53.251Z,997.8
2022-12-31T14:07:09.499Z,997.8
2022-12-31T14:08:25.734Z,997.8
2022-12-31T14:09:41.979Z,997.8
2022-12-31T14:10:58.216Z,997.8
2022-12-31T14:12:14.465Z,997.8
2022-12-31T14:13:29.714Z,997.8
2022-12-31T14:14:45.945Z,997.9
2022-12-31T14:16:02.185Z,997.9
2022-12-31T14:17:18.437Z,998
2022-12-31T14:18:34.681Z,998
2022-12-31T14:19:50.909Z,998.1
2022-12-31T14:21:07.145Z,998.1
2022-12-31T14:22:23.394Z,998.1
2022-12-31T14:23:39.634Z,998.1
2022-12-31T14:26:12.103Z,998.2
2022-12-31T14:27:28.343Z,998.2
2022-12-31T14:28:44.596Z,998.2
2022-12-31T14:30:00.939Z,998.1
2022-12-31T14:31:16.214Z,998.2
2022-12-31T14:32:32.448Z,998.1
2022-12-31T14:33:48.695Z,998.1
2022-12-31T14:35:04.918Z,998.1
2022-12-31T14:36:21.165Z,998.1
2022-12-31T14:37:37.398Z,998.1
2022-12-31T14:38:53.650Z,998.2
2022-12-31T14:40:09.000Z,998.2
2022-12-31T14:41:26.126Z,998.2
2022-12-31T14:42:42.370Z,998.1
2022-12-31T14:43:58.612Z,998
2022-12-31T14:45:14.851Z,998.1
2022-12-31T14:46:31.089Z,998.1
2022-12-31T14:47:46.329Z,998.2
2022-12-31T14:49:02.570Z,998.2
2022-12-31T14:50:18.809Z,998.2
2022-12-31T14:51:35.048Z,998.3
2022-12-31T14:52:51.301Z,998.2
2022-12-31T14:54:07.546Z,998.3
2022-12-31T14:55:23.770Z,998.3
2022-12-31T14:56:40.019Z,998.2
2022-12-31T14:57:56.259Z,998.3
2022-12-31T14:59:12.506Z,998.3
2022-12-31T15:00:28.732Z,998.2
2022-12-31T15:01:44.979Z,998.2
2022-12-31T15:03:01.216Z,998.3
2022-12-31T15:04:16.473Z,998.3
2022-12-31T15:05:32.715Z,998.3
2022-12-31T15:06:48.951Z,998.3
2022-12-31T15:08:05.191Z,998.3
2022-12-31T15:09:21.551Z,998.3
2022-12-31T15:10:37.788Z,998.4
2022-12-31T15:11:54.047Z,998.3
2022-12-31T15:13:10.267Z,998.3
2022-12-31T15:14:26.524Z,998.3
2022-12-31T15:15:42.747Z,998.4
2022-12-31T15:16:58.994Z,998.4
2022-12-31T15:18:15.246Z,998.4
2022-12-31T15:19:31.474Z,998.4
2022-12-31T15:20:47.705Z,998.3
2022-12-31T15:22:03.968Z,998.4
2022-12-31T15:23:20.199Z,998.4
2022-12-31T15:24:36.437Z,998.4
2022-12-31T15:25:51.681Z,998.4
2022-12-31T15:27:07.927Z,998.5
2022-12-31T15:28:24.166Z,998.5
2022-12-31T15:29:40.414Z,998.6
2022-12-31T15:30:56.656Z,998.5
2022-12-31T15:32:12.900Z,998.5
2022-12-31T15:33:29.124Z,998.5
2022-12-31T15:34:45.364Z,998.6
2022-12-31T15:36:01.610Z,998.6
2022-12-31T15:37:17.861Z,998.5
2022-12-31T15:38:34.090Z,998.5
2022-12-31T15:39:50.341Z,998.6
2022-12-31T15:41:06.576Z,998.5
2022-12-31T15:42:22.818Z,998.6
2022-12-31T15:43:39.039Z,998.6
2022-12-31T15:44:54.304Z,998.6
2022-12-31T15:46:10.559Z,998.6
2022-12-31T15:47:26.825Z,998.6
2022-12-31T15:48:43.127Z,998.5
2022-12-31T15:49:59.413Z,998.6
2022-12-31T15:51:15.716Z,998.6
2022-12-31T15:52:32.014Z,998.5
2022-12-31T15:53:48.317Z,998.5
2022-12-31T15:55:04.604Z,998.5
2022-12-31T15:56:20.892Z,998.5
2022-12-31T15:57:37.199Z,998.5
2022-12-31T15:58:53.482Z,998.5
2022-12-31T16:00:09.767Z,998.5
2022-12-31T16:01:25.000Z,998.4
2022-12-31T16:02:41.379Z,998.4
2022-12-31T16:03:57.673Z,998.4
2022-12-31T16:05:13.966Z,998.4
2022-12-31T16:06:30.266Z,998.4
2022-12-31T16:07:46.545Z,998.5
2022-12-31T16:09:02.847Z,998.5
2022-12-31T16:10:19.148Z,998.6
2022-12-31T16:11:35.437Z,998.6
2022-12-31T16:12:51.732Z,998.6
2022-12-31T16:14:08.025Z,998.7
2022-12-31T16:15:24.303Z,998.7
2022-12-31T16:16:40.620Z,998.7
2022-12-31T16:17:55.924Z,998.7
2022-12-31T16:19:12.209Z,998.7
2022-12-31T16:20:28.509Z,998.6
2022-12-31T16:21:44.806Z,998.7
2022-12-31T16:23:01.094Z,998.7
2022-12-31T16:24:17.377Z,998.8
2022-12-31T16:25:33.670Z,998.7
2022-12-31T16:26:49.968Z,998.7
2022-12-31T16:28:06.274Z,998.8
2022-12-31T16:29:22.565Z,998.9
2022-12-31T16:30:38.867Z,998.7